sensor_id;sensor_type;location;lat;lon;timestamp;P1;durP1;ratioP1;P2;durP2;ratioP2
6145;SDS011;3104;50.348;7.620;2022-12-26T00:01:26;10.60;;;9.00;;
6145;SDS011;3104;50.348;7.620;2022-12-26T00:03:53;5.07;;;4.10;;
6145;SDS011;3104;50.348;7.620;2022-12-26T00:06:20;4.77;;;3.60;;
6145;SDS011;3104;50.348;7.620;2022-12-26T00:08:48;3.53;;;3.00;;
6145;SDS011;3104;50.348;7.620;2022-12-26T00:11:14;4.50;;;2.93;;
6145;SDS011;3104;50.348;7.620;2022-12-26T00:13:40;3.50;;;3.10;;
6145;SDS011;3104;50.348;7.620;2022-12-26T00:18:37;8.30;;;3.23;;
6145;SDS011;3104;50.348;7.620;2022-12-26T00:21:03;4.10;;;3.60;;
6145;SDS011;3104;50.348;7.620;2022-12-26T00:23:31;4.80;;;4.40;;
6145;SDS011;3104;50.348;7.620;2022-12-26T00:26:01;3.50;;;3.20;;
6145;SDS011;3104;50.348;7.620;2022-12-26T00:28:31;3.77;;;2.87;;
6145;SDS011;3104;50.348;7.620;2022-12-26T00:30:56;8.03;;;2.73;;
6145;SDS011;3104;50.348;7.620;2022-12-26T00:33:22;4.37;;;3.23;;
6145;SDS011;3104;50.348;7.620;2022-12-26T00:35:48;3.80;;;2.97;;
6145;SDS011;3104;50.348;7.620;2022-12-26T00:38:13;3.10;;;2.90;;
6145;SDS011;3104;50.348;7.620;2022-12-26T00:40:40;3.53;;;3.00;;
6145;SDS011;3104;50.348;7.620;2022-12-26T00:43:07;3.33;;;2.60;;
6145;SDS011;3104;50.348;7.620;2022-12-26T00:45:34;3.37;;;3.10;;
6145;SDS011;3104;50.348;7.620;2022-12-26T00:47:59;5.37;;;2.93;;
6145;SDS011;3104;50.348;7.620;2022-12-26T00:50:25;4.33;;;3.37;;
6145;SDS011;3104;50.348;7.620;2022-12-26T00:52:51;3.47;;;2.80;;
6145;SDS011;3104;50.348;7.620;2022-12-26T00:55:17;4.17;;;2.70;;
6145;SDS011;3104;50.348;7.620;2022-12-26T00:57:44;3.30;;;3.10;;
6145;SDS011;3104;50.348;7.620;2022-12-26T01:00:09;3.37;;;3.07;;
6145;SDS011;3104;50.348;7.620;2022-12-26T01:02:35;3.30;;;2.90;;
6145;SDS011;3104;50.348;7.620;2022-12-26T01:05:07;4.77;;;2.77;;
6145;SDS011;3104;50.348;7.620;2022-12-26T01:07:35;3.13;;;2.37;;
6145;SDS011;3104;50.348;7.620;2022-12-26T01:10:05;2.70;;;2.50;;
6145;SDS011;3104;50.348;7.620;2022-12-26T01:12:32;2.97;;;2.70;;
6145;SDS011;3104;50.348;7.620;2022-12-26T01:14:58;5.73;;;2.60;;
6145;SDS011;3104;50.348;7.620;2022-12-26T01:17:24;3.00;;;2.63;;
6145;SDS011;3104;50.348;7.620;2022-12-26T01:19:53;2.80;;;2.60;;
6145;SDS011;3104;50.348;7.620;2022-12-26T01:22:20;4.33;;;2.50;;
6145;SDS011;3104;50.348;7.620;2022-12-26T01:24:45;3.30;;;3.00;;
6145;SDS011;3104;50.348;7.620;2022-12-26T01:27:11;3.50;;;3.10;;
6145;SDS011;3104;50.348;7.620;2022-12-26T01:29:38;3.80;;;2.80;;
6145;SDS011;3104;50.348;7.620;2022-12-26T01:32:04;3.60;;;2.77;;
6145;SDS011;3104;50.348;7.620;2022-12-26T01:34:30;3.60;;;3.20;;
6145;SDS011;3104;50.348;7.620;2022-12-26T01:36:56;3.00;;;2.70;;
6145;SDS011;3104;50.348;7.620;2022-12-26T01:39:22;3.20;;;2.67;;
6145;SDS011;3104;50.348;7.620;2022-12-26T01:41:47;2.43;;;2.23;;
6145;SDS011;3104;50.348;7.620;2022-12-26T01:47:17;5.13;;;3.00;;
6145;SDS011;3104;50.348;7.620;2022-12-26T01:49:46;3.17;;;2.60;;
6145;SDS011;3104;50.348;7.620;2022-12-26T01:52:16;2.77;;;2.27;;
6145;SDS011;3104;50.348;7.620;2022-12-26T01:54:48;4.37;;;2.90;;
6145;SDS011;3104;50.348;7.620;2022-12-26T01:57:21;3.97;;;2.93;;
6145;SDS011;3104;50.348;7.620;2022-12-26T01:59:51;2.67;;;2.43;;
6145;SDS011;3104;50.348;7.620;2022-12-26T02:02:18;3.10;;;2.60;;
6145;SDS011;3104;50.348;7.620;2022-12-26T02:04:46;4.63;;;2.50;;
6145;SDS011;3104;50.348;7.620;2022-12-26T02:07:33;4.23;;;3.13;;
6145;SDS011;3104;50.348;7.620;2022-12-26T02:10:02;3.23;;;3.00;;
6145;SDS011;3104;50.348;7.620;2022-12-26T02:12:31;3.77;;;3.47;;
6145;SDS011;3104;50.348;7.620;2022-12-26T02:14:59;2.87;;;2.67;;
6145;SDS011;3104;50.348;7.620;2022-12-26T02:17:26;3.50;;;3.20;;
6145;SDS011;3104;50.348;7.620;2022-12-26T02:29:13;4.00;;;2.80;;
6145;SDS011;3104;50.348;7.620;2022-12-26T02:37:12;3.10;;;2.80;;
6145;SDS011;3104;50.348;7.620;2022-12-26T02:40:01;3.37;;;2.70;;
6145;SDS011;3104;50.348;7.620;2022-12-26T02:42:58;3.93;;;3.50;;
6145;SDS011;3104;50.348;7.620;2022-12-26T02:45:58;2.57;;;2.37;;
6145;SDS011;3104;50.348;7.620;2022-12-26T02:49:20;4.83;;;3.20;;
6145;SDS011;3104;50.348;7.620;2022-12-26T02:54:53;3.80;;;2.43;;
6145;SDS011;3104;50.348;7.620;2022-12-26T02:57:59;4.03;;;2.53;;
6145;SDS011;3104;50.348;7.620;2022-12-26T03:00:50;3.60;;;2.67;;
6145;SDS011;3104;50.348;7.620;2022-12-26T03:03:40;3.13;;;2.63;;
6145;SDS011;3104;50.348;7.620;2022-12-26T03:06:28;4.10;;;2.70;;
6145;SDS011;3104;50.348;7.620;2022-12-26T03:09:19;5.17;;;2.80;;
6145;SDS011;3104;50.348;7.620;2022-12-26T03:12:20;4.33;;;3.03;;
6145;SDS011;3104;50.348;7.620;2022-12-26T03:15:14;5.97;;;2.17;;
6145;SDS011;3104;50.348;7.620;2022-12-26T03:17:43;6.10;;;2.47;;
6145;SDS011;3104;50.348;7.620;2022-12-26T03:20:26;5.37;;;3.60;;
6145;SDS011;3104;50.348;7.620;2022-12-26T03:22:54;3.10;;;2.80;;
6145;SDS011;3104;50.348;7.620;2022-12-26T03:28:15;3.20;;;2.40;;
6145;SDS011;3104;50.348;7.620;2022-12-26T03:30:40;3.13;;;2.93;;
6145;SDS011;3104;50.348;7.620;2022-12-26T03:36:00;6.40;;;2.70;;
6145;SDS011;3104;50.348;7.620;2022-12-26T03:38:34;3.07;;;2.77;;
6145;SDS011;3104;50.348;7.620;2022-12-26T03:41:35;4.77;;;2.97;;
6145;SDS011;3104;50.348;7.620;2022-12-26T03:47:16;3.53;;;3.23;;
6145;SDS011;3104;50.348;7.620;2022-12-26T03:50:27;2.67;;;2.33;;
6145;SDS011;3104;50.348;7.620;2022-12-26T03:53:21;4.37;;;2.63;;
6145;SDS011;3104;50.348;7.620;2022-12-26T03:56:18;8.10;;;2.83;;
6145;SDS011;3104;50.348;7.620;2022-12-26T03:59:15;2.73;;;2.53;;
6145;SDS011;3104;50.348;7.620;2022-12-26T04:02:13;5.67;;;3.10;;
6145;SDS011;3104;50.348;7.620;2022-12-26T04:05:00;5.30;;;2.80;;
6145;SDS011;3104;50.348;7.620;2022-12-26T04:07:49;3.67;;;2.73;;
6145;SDS011;3104;50.348;7.620;2022-12-26T04:10:38;4.90;;;2.70;;
6145;SDS011;3104;50.348;7.620;2022-12-26T04:13:26;3.83;;;2.53;;
6145;SDS011;3104;50.348;7.620;2022-12-26T04:16:36;5.43;;;2.20;;
6145;SDS011;3104;50.348;7.620;2022-12-26T04:22:12;3.20;;;2.40;;
6145;SDS011;3104;50.348;7.620;2022-12-26T04:25:20;3.70;;;2.47;;
6145;SDS011;3104;50.348;7.620;2022-12-26T04:28:07;6.73;;;3.30;;
6145;SDS011;3104;50.348;7.620;2022-12-26T04:30:55;4.57;;;2.63;;
6145;SDS011;3104;50.348;7.620;2022-12-26T04:33:50;5.20;;;2.83;;
6145;SDS011;3104;50.348;7.620;2022-12-26T04:36:40;2.67;;;2.47;;
6145;SDS011;3104;50.348;7.620;2022-12-26T04:39:47;4.07;;;2.80;;
6145;SDS011;3104;50.348;7.620;2022-12-26T04:42:33;4.80;;;2.87;;
6145;SDS011;3104;50.348;7.620;2022-12-26T04:45:19;2.50;;;2.30;;
6145;SDS011;3104;50.348;7.620;2022-12-26T04:47:48;3.93;;;2.80;;
6145;SDS011;3104;50.348;7.620;2022-12-26T04:50:33;4.10;;;2.77;;
6145;SDS011;3104;50.348;7.620;2022-12-26T04:52:59;4.10;;;2.40;;
6145;SDS011;3104;50.348;7.620;2022-12-26T04:55:28;3.37;;;3.00;;
6145;SDS011;3104;50.348;7.620;2022-12-26T04:57:57;5.37;;;2.60;;
6145;SDS011;3104;50.348;7.620;2022-12-26T05:00:23;3.53;;;2.10;;
6145;SDS011;3104;50.348;7.620;2022-12-26T05:02:51;2.90;;;2.57;;
6145;SDS011;3104;50.348;7.620;2022-12-26T05:05:40;3.50;;;2.50;;
6145;SDS011;3104;50.348;7.620;2022-12-26T05:08:29;2.53;;;2.33;;
6145;SDS011;3104;50.348;7.620;2022-12-26T05:11:15;2.80;;;2.60;;
6145;SDS011;3104;50.348;7.620;2022-12-26T05:13:41;4.13;;;2.60;;
6145;SDS011;3104;50.348;7.620;2022-12-26T05:16:07;2.73;;;2.20;;
6145;SDS011;3104;50.348;7.620;2022-12-26T05:18:51;3.10;;;2.47;;
6145;SDS011;3104;50.348;7.620;2022-12-26T05:21:35;2.40;;;2.30;;
6145;SDS011;3104;50.348;7.620;2022-12-26T05:24:20;3.33;;;3.13;;
6145;SDS011;3104;50.348;7.620;2022-12-26T05:27:07;5.23;;;2.60;;
6145;SDS011;3104;50.348;7.620;2022-12-26T05:29:55;5.07;;;2.33;;
6145;SDS011;3104;50.348;7.620;2022-12-26T05:32:20;2.97;;;2.43;;
6145;SDS011;3104;50.348;7.620;2022-12-26T05:35:04;3.00;;;2.60;;
6145;SDS011;3104;50.348;7.620;2022-12-26T05:37:30;3.77;;;1.83;;
6145;SDS011;3104;50.348;7.620;2022-12-26T05:39:56;5.10;;;2.47;;
6145;SDS011;3104;50.348;7.620;2022-12-26T05:42:21;2.40;;;2.20;;
6145;SDS011;3104;50.348;7.620;2022-12-26T05:44:47;4.20;;;2.00;;
6145;SDS011;3104;50.348;7.620;2022-12-26T05:47:12;3.43;;;2.50;;
6145;SDS011;3104;50.348;7.620;2022-12-26T05:49:38;4.10;;;2.10;;
6145;SDS011;3104;50.348;7.620;2022-12-26T05:52:03;3.50;;;2.50;;
6145;SDS011;3104;50.348;7.620;2022-12-26T05:54:29;4.20;;;2.10;;
6145;SDS011;3104;50.348;7.620;2022-12-26T05:56:54;3.27;;;2.33;;
6145;SDS011;3104;50.348;7.620;2022-12-26T05:59:20;1.97;;;1.80;;
6145;SDS011;3104;50.348;7.620;2022-12-26T06:01:46;1.80;;;1.70;;
6145;SDS011;3104;50.348;7.620;2022-12-26T06:04:11;4.50;;;1.77;;
6145;SDS011;3104;50.348;7.620;2022-12-26T06:06:37;3.77;;;3.03;;
6145;SDS011;3104;50.348;7.620;2022-12-26T06:09:02;2.83;;;2.00;;
6145;SDS011;3104;50.348;7.620;2022-12-26T06:11:28;2.53;;;1.80;;
6145;SDS011;3104;50.348;7.620;2022-12-26T06:13:54;2.53;;;1.90;;
6145;SDS011;3104;50.348;7.620;2022-12-26T06:16:20;1.90;;;1.70;;
6145;SDS011;3104;50.348;7.620;2022-12-26T06:18:45;2.40;;;2.20;;
6145;SDS011;3104;50.348;7.620;2022-12-26T06:21:16;2.97;;;1.93;;
6145;SDS011;3104;50.348;7.620;2022-12-26T06:23:43;3.23;;;1.90;;
6145;SDS011;3104;50.348;7.620;2022-12-26T06:26:09;1.80;;;1.70;;
6145;SDS011;3104;50.348;7.620;2022-12-26T06:28:36;3.87;;;2.03;;
6145;SDS011;3104;50.348;7.620;2022-12-26T06:31:05;2.17;;;1.67;;
6145;SDS011;3104;50.348;7.620;2022-12-26T06:33:36;2.20;;;1.80;;
6145;SDS011;3104;50.348;7.620;2022-12-26T06:36:02;2.60;;;1.67;;
6145;SDS011;3104;50.348;7.620;2022-12-26T06:38:29;7.03;;;2.10;;
6145;SDS011;3104;50.348;7.620;2022-12-26T06:40:55;2.20;;;2.00;;
6145;SDS011;3104;50.348;7.620;2022-12-26T06:43:20;1.93;;;1.83;;
6145;SDS011;3104;50.348;7.620;2022-12-26T06:45:53;1.70;;;1.60;;
6145;SDS011;3104;50.348;7.620;2022-12-26T06:48:20;2.87;;;1.47;;
6145;SDS011;3104;50.348;7.620;2022-12-26T06:50:45;2.60;;;2.40;;
6145;SDS011;3104;50.348;7.620;2022-12-26T06:53:11;3.07;;;1.77;;
6145;SDS011;3104;50.348;7.620;2022-12-26T06:55:36;1.40;;;1.30;;
6145;SDS011;3104;50.348;7.620;2022-12-26T06:58:02;2.87;;;1.90;;
6145;SDS011;3104;50.348;7.620;2022-12-26T07:00:27;2.20;;;1.40;;
6145;SDS011;3104;50.348;7.620;2022-12-26T07:02:54;2.53;;;1.40;;
6145;SDS011;3104;50.348;7.620;2022-12-26T07:05:19;1.60;;;1.50;;
6145;SDS011;3104;50.348;7.620;2022-12-26T07:07:49;1.50;;;1.40;;
6145;SDS011;3104;50.348;7.620;2022-12-26T07:10:18;1.73;;;1.13;;
6145;SDS011;3104;50.348;7.620;2022-12-26T07:12:44;1.60;;;1.50;;
6145;SDS011;3104;50.348;7.620;2022-12-26T07:15:10;3.20;;;1.20;;
6145;SDS011;3104;50.348;7.620;2022-12-26T07:17:36;1.10;;;1.00;;
6145;SDS011;3104;50.348;7.620;2022-12-26T07:20:05;2.63;;;1.20;;
6145;SDS011;3104;50.348;7.620;2022-12-26T07:22:31;1.00;;;1.00;;
6145;SDS011;3104;50.348;7.620;2022-12-26T07:24:57;1.00;;;0.77;;
6145;SDS011;3104;50.348;7.620;2022-12-26T07:27:23;1.27;;;0.70;;
6145;SDS011;3104;50.348;7.620;2022-12-26T07:29:48;1.00;;;0.80;;
6145;SDS011;3104;50.348;7.620;2022-12-26T07:32:14;0.80;;;0.73;;
6145;SDS011;3104;50.348;7.620;2022-12-26T07:34:40;2.00;;;1.10;;
6145;SDS011;3104;50.348;7.620;2022-12-26T07:37:06;0.80;;;0.80;;
6145;SDS011;3104;50.348;7.620;2022-12-26T07:39:32;0.80;;;0.80;;
6145;SDS011;3104;50.348;7.620;2022-12-26T07:41:57;0.77;;;0.77;;
6145;SDS011;3104;50.348;7.620;2022-12-26T07:44:24;1.77;;;0.90;;
6145;SDS011;3104;50.348;7.620;2022-12-26T07:46:50;1.53;;;0.80;;
6145;SDS011;3104;50.348;7.620;2022-12-26T07:49:16;0.63;;;0.63;;
6145;SDS011;3104;50.348;7.620;2022-12-26T07:51:42;1.53;;;1.20;;
6145;SDS011;3104;50.348;7.620;2022-12-26T07:54:08;1.10;;;1.00;;
6145;SDS011;3104;50.348;7.620;2022-12-26T07:56:34;1.10;;;1.00;;
6145;SDS011;3104;50.348;7.620;2022-12-26T07:59:00;2.47;;;1.20;;
6145;SDS011;3104;50.348;7.620;2022-12-26T08:01:25;1.20;;;1.10;;
6145;SDS011;3104;50.348;7.620;2022-12-26T08:03:51;1.37;;;1.20;;
6145;SDS011;3104;50.348;7.620;2022-12-26T08:06:17;1.87;;;1.17;;
6145;SDS011;3104;50.348;7.620;2022-12-26T08:08:44;1.03;;;1.03;;
6145;SDS011;3104;50.348;7.620;2022-12-26T08:11:13;1.83;;;1.10;;
6145;SDS011;3104;50.348;7.620;2022-12-26T08:13:41;5.00;;;2.93;;
6145;SDS011;3104;50.348;7.620;2022-12-26T08:16:07;6.83;;;5.80;;
6145;SDS011;3104;50.348;7.620;2022-12-26T08:18:34;4.20;;;2.87;;
6145;SDS011;3104;50.348;7.620;2022-12-26T08:21:00;1.10;;;1.00;;
6145;SDS011;3104;50.348;7.620;2022-12-26T08:23:25;1.50;;;1.23;;
6145;SDS011;3104;50.348;7.620;2022-12-26T08:25:51;1.30;;;1.17;;
6145;SDS011;3104;50.348;7.620;2022-12-26T08:28:17;2.37;;;1.73;;
6145;SDS011;3104;50.348;7.620;2022-12-26T08:30:43;2.90;;;2.67;;
6145;SDS011;3104;50.348;7.620;2022-12-26T08:33:10;4.80;;;3.63;;
6145;SDS011;3104;50.348;7.620;2022-12-26T08:35:36;2.83;;;1.57;;
6145;SDS011;3104;50.348;7.620;2022-12-26T08:38:03;2.97;;;2.03;;
6145;SDS011;3104;50.348;7.620;2022-12-26T08:40:29;1.80;;;1.70;;
6145;SDS011;3104;50.348;7.620;2022-12-26T08:42:55;3.17;;;2.97;;
6145;SDS011;3104;50.348;7.620;2022-12-26T08:45:21;1.57;;;1.47;;
6145;SDS011;3104;50.348;7.620;2022-12-26T08:47:46;2.30;;;1.60;;
6145;SDS011;3104;50.348;7.620;2022-12-26T08:50:12;2.07;;;1.87;;
6145;SDS011;3104;50.348;7.620;2022-12-26T08:52:37;1.73;;;1.60;;
6145;SDS011;3104;50.348;7.620;2022-12-26T08:55:03;2.20;;;1.80;;
6145;SDS011;3104;50.348;7.620;2022-12-26T08:57:29;1.90;;;1.80;;
6145;SDS011;3104;50.348;7.620;2022-12-26T08:59:55;1.60;;;1.50;;
6145;SDS011;3104;50.348;7.620;2022-12-26T09:02:20;2.13;;;1.80;;
6145;SDS011;3104;50.348;7.620;2022-12-26T09:04:46;2.40;;;2.00;;
6145;SDS011;3104;50.348;7.620;2022-12-26T09:07:11;2.37;;;1.97;;
6145;SDS011;3104;50.348;7.620;2022-12-26T09:09:37;3.10;;;2.80;;
6145;SDS011;3104;50.348;7.620;2022-12-26T09:12:03;1.77;;;1.67;;
6145;SDS011;3104;50.348;7.620;2022-12-26T09:14:29;2.07;;;1.80;;
6145;SDS011;3104;50.348;7.620;2022-12-26T09:16:54;2.30;;;2.10;;
6145;SDS011;3104;50.348;7.620;2022-12-26T09:19:20;1.63;;;1.53;;
6145;SDS011;3104;50.348;7.620;2022-12-26T09:21:47;2.57;;;2.10;;
6145;SDS011;3104;50.348;7.620;2022-12-26T09:24:33;1.70;;;1.60;;
6145;SDS011;3104;50.348;7.620;2022-12-26T09:26:59;2.00;;;1.80;;
6145;SDS011;3104;50.348;7.620;2022-12-26T09:29:24;1.80;;;1.70;;
6145;SDS011;3104;50.348;7.620;2022-12-26T09:31:50;1.77;;;1.67;;
6145;SDS011;3104;50.348;7.620;2022-12-26T09:34:19;2.67;;;1.60;;
6145;SDS011;3104;50.348;7.620;2022-12-26T09:36:44;1.30;;;1.30;;
6145;SDS011;3104;50.348;7.620;2022-12-26T09:39:10;1.87;;;1.70;;
6145;SDS011;3104;50.348;7.620;2022-12-26T09:47:14;1.67;;;1.57;;
6145;SDS011;3104;50.348;7.620;2022-12-26T09:50:15;1.20;;;1.10;;
6145;SDS011;3104;50.348;7.620;2022-12-26T09:52:56;2.10;;;1.43;;
6145;SDS011;3104;50.348;7.620;2022-12-26T10:00:59;5.60;;;3.70;;
6145;SDS011;3104;50.348;7.620;2022-12-26T10:03:36;1.10;;;1.00;;
6145;SDS011;3104;50.348;7.620;2022-12-26T10:16:46;2.10;;;2.00;;
6145;SDS011;3104;50.348;7.620;2022-12-26T10:19:23;1.23;;;1.13;;
6145;SDS011;3104;50.348;7.620;2022-12-26T10:22:11;1.30;;;1.20;;
6145;SDS011;3104;50.348;7.620;2022-12-26T10:24:47;1.27;;;1.23;;
6145;SDS011;3104;50.348;7.620;2022-12-26T10:27:16;1.43;;;1.37;;
6145;SDS011;3104;50.348;7.620;2022-12-26T10:29:51;1.60;;;1.37;;
6145;SDS011;3104;50.348;7.620;2022-12-26T10:32:25;1.40;;;1.30;;
6145;SDS011;3104;50.348;7.620;2022-12-26T10:34:56;1.30;;;1.20;;
6145;SDS011;3104;50.348;7.620;2022-12-26T10:37:32;1.60;;;0.90;;
6145;SDS011;3104;50.348;7.620;2022-12-26T10:42:49;2.10;;;1.07;;
6145;SDS011;3104;50.348;7.620;2022-12-26T10:48:12;1.23;;;1.13;;
6145;SDS011;3104;50.348;7.620;2022-12-26T10:50:39;1.17;;;1.00;;
6145;SDS011;3104;50.348;7.620;2022-12-26T10:53:11;1.40;;;1.20;;
6145;SDS011;3104;50.348;7.620;2022-12-26T10:55:38;1.83;;;1.30;;
6145;SDS011;3104;50.348;7.620;2022-12-26T10:58:13;1.63;;;1.10;;
6145;SDS011;3104;50.348;7.620;2022-12-26T11:00:40;1.70;;;1.10;;
6145;SDS011;3104;50.348;7.620;2022-12-26T11:03:06;1.80;;;1.53;;
6145;SDS011;3104;50.348;7.620;2022-12-26T11:05:33;1.30;;;1.20;;
6145;SDS011;3104;50.348;7.620;2022-12-26T11:10:47;2.90;;;1.50;;
6145;SDS011;3104;50.348;7.620;2022-12-26T11:13:34;1.70;;;1.43;;
6145;SDS011;3104;50.348;7.620;2022-12-26T11:16:03;2.30;;;1.23;;
6145;SDS011;3104;50.348;7.620;2022-12-26T11:18:35;2.17;;;1.30;;
6145;SDS011;3104;50.348;7.620;2022-12-26T11:23:38;1.20;;;1.10;;
6145;SDS011;3104;50.348;7.620;2022-12-26T11:26:17;1.50;;;1.40;;
6145;SDS011;3104;50.348;7.620;2022-12-26T11:28:43;1.40;;;1.17;;
6145;SDS011;3104;50.348;7.620;2022-12-26T11:31:24;3.13;;;1.07;;
6145;SDS011;3104;50.348;7.620;2022-12-26T11:33:55;1.23;;;1.10;;
6145;SDS011;3104;50.348;7.620;2022-12-26T11:36:22;1.27;;;1.17;;
6145;SDS011;3104;50.348;7.620;2022-12-26T11:38:53;1.30;;;1.20;;
6145;SDS011;3104;50.348;7.620;2022-12-26T11:43:58;1.37;;;1.10;;
6145;SDS011;3104;50.348;7.620;2022-12-26T11:47:11;1.20;;;1.10;;
6145;SDS011;3104;50.348;7.620;2022-12-26T11:49:34;2.40;;;1.30;;
6145;SDS011;3104;50.348;7.620;2022-12-26T11:57:57;0.93;;;0.90;;
6145;SDS011;3104;50.348;7.620;2022-12-26T12:03:16;1.63;;;1.10;;
6145;SDS011;3104;50.348;7.620;2022-12-26T12:11:19;1.80;;;1.27;;
6145;SDS011;3104;50.348;7.620;2022-12-26T12:40:17;2.37;;;0.80;;
6145;SDS011;3104;50.348;7.620;2022-12-26T12:42:57;2.27;;;1.10;;
6145;SDS011;3104;50.348;7.620;2022-12-26T12:45:41;1.27;;;1.00;;
6145;SDS011;3104;50.348;7.620;2022-12-26T12:48:24;1.03;;;0.90;;
6145;SDS011;3104;50.348;7.620;2022-12-26T12:51:27;0.70;;;0.70;;
6145;SDS011;3104;50.348;7.620;2022-12-26T12:54:10;1.70;;;0.70;;
6145;SDS011;3104;50.348;7.620;2022-12-26T12:56:46;0.93;;;0.83;;
6145;SDS011;3104;50.348;7.620;2022-12-26T12:59:24;1.43;;;1.33;;
6145;SDS011;3104;50.348;7.620;2022-12-26T13:01:58;2.80;;;1.07;;
6145;SDS011;3104;50.348;7.620;2022-12-26T13:04:32;1.80;;;1.10;;
6145;SDS011;3104;50.348;7.620;2022-12-26T13:07:13;1.70;;;1.13;;
6145;SDS011;3104;50.348;7.620;2022-12-26T13:09:50;1.33;;;0.80;;
6145;SDS011;3104;50.348;7.620;2022-12-26T13:12:21;1.20;;;1.10;;
6145;SDS011;3104;50.348;7.620;2022-12-26T13:17:22;3.13;;;1.20;;
6145;SDS011;3104;50.348;7.620;2022-12-26T13:22:47;1.63;;;1.00;;
6145;SDS011;3104;50.348;7.620;2022-12-26T13:25:38;0.80;;;0.80;;
6145;SDS011;3104;50.348;7.620;2022-12-26T13:28:23;3.40;;;1.10;;
6145;SDS011;3104;50.348;7.620;2022-12-26T13:30:52;1.90;;;1.07;;
6145;SDS011;3104;50.348;7.620;2022-12-26T13:33:19;1.77;;;1.00;;
6145;SDS011;3104;50.348;7.620;2022-12-26T13:35:48;0.80;;;0.80;;
6145;SDS011;3104;50.348;7.620;2022-12-26T13:38:20;2.67;;;1.00;;
6145;SDS011;3104;50.348;7.620;2022-12-26T13:40:48;1.57;;;1.10;;
6145;SDS011;3104;50.348;7.620;2022-12-26T13:44:01;4.10;;;1.43;;
6145;SDS011;3104;50.348;7.620;2022-12-26T13:51:59;1.37;;;1.30;;
6145;SDS011;3104;50.348;7.620;2022-12-26T14:11:36;1.73;;;1.00;;
6145;SDS011;3104;50.348;7.620;2022-12-26T14:25:20;1.10;;;1.00;;
6145;SDS011;3104;50.348;7.620;2022-12-26T14:27:58;1.37;;;1.00;;
6145;SDS011;3104;50.348;7.620;2022-12-26T14:30:37;1.10;;;0.93;;
6145;SDS011;3104;50.348;7.620;2022-12-26T14:33:29;0.67;;;0.67;;
6145;SDS011;3104;50.348;7.620;2022-12-26T14:41:24;1.10;;;0.87;;
6145;SDS011;3104;50.348;7.620;2022-12-26T14:49:35;1.27;;;0.80;;
6145;SDS011;3104;50.348;7.620;2022-12-26T14:54:52;2.30;;;2.20;;
6145;SDS011;3104;50.348;7.620;2022-12-26T14:57:34;0.67;;;0.60;;
6145;SDS011;3104;50.348;7.620;2022-12-26T15:00:11;3.37;;;0.83;;
6145;SDS011;3104;50.348;7.620;2022-12-26T15:02:50;0.80;;;0.80;;
6145;SDS011;3104;50.348;7.620;2022-12-26T15:05:26;1.70;;;1.10;;
6145;SDS011;3104;50.348;7.620;2022-12-26T15:08:05;2.50;;;1.30;;
6145;SDS011;3104;50.348;7.620;2022-12-26T15:21:26;2.97;;;1.10;;
6145;SDS011;3104;50.348;7.620;2022-12-26T15:27:20;0.93;;;0.93;;
6145;SDS011;3104;50.348;7.620;2022-12-26T15:30:18;1.20;;;1.10;;
6145;SDS011;3104;50.348;7.620;2022-12-26T15:33:00;0.83;;;0.83;;
6145;SDS011;3104;50.348;7.620;2022-12-26T15:35:44;0.80;;;0.80;;
6145;SDS011;3104;50.348;7.620;2022-12-26T15:38:24;1.17;;;1.07;;
6145;SDS011;3104;50.348;7.620;2022-12-26T15:47:22;0.70;;;0.70;;
6145;SDS011;3104;50.348;7.620;2022-12-26T15:55:33;5.17;;;4.73;;
6145;SDS011;3104;50.348;7.620;2022-12-26T16:00:58;1.70;;;1.43;;
6145;SDS011;3104;50.348;7.620;2022-12-26T16:06:30;2.10;;;1.43;;
6145;SDS011;3104;50.348;7.620;2022-12-26T16:11:59;1.17;;;1.07;;
6145;SDS011;3104;50.348;7.620;2022-12-26T16:17:17;1.03;;;0.67;;
6145;SDS011;3104;50.348;7.620;2022-12-26T16:19:47;3.00;;;1.60;;
6145;SDS011;3104;50.348;7.620;2022-12-26T16:22:33;0.60;;;0.60;;
6145;SDS011;3104;50.348;7.620;2022-12-26T16:27:50;3.17;;;2.60;;
6145;SDS011;3104;50.348;7.620;2022-12-26T16:30:21;1.77;;;1.60;;
6145;SDS011;3104;50.348;7.620;2022-12-26T16:32:49;1.00;;;1.00;;
6145;SDS011;3104;50.348;7.620;2022-12-26T16:35:17;1.30;;;1.20;;
6145;SDS011;3104;50.348;7.620;2022-12-26T16:37:49;0.90;;;0.90;;
6145;SDS011;3104;50.348;7.620;2022-12-26T16:45:24;0.90;;;0.83;;
6145;SDS011;3104;50.348;7.620;2022-12-26T16:47:51;2.23;;;0.93;;
6145;SDS011;3104;50.348;7.620;2022-12-26T16:50:20;1.40;;;0.93;;
6145;SDS011;3104;50.348;7.620;2022-12-26T16:52:48;2.97;;;1.30;;
6145;SDS011;3104;50.348;7.620;2022-12-26T16:57:55;1.70;;;1.00;;
6145;SDS011;3104;50.348;7.620;2022-12-26T17:00:23;1.53;;;1.03;;
6145;SDS011;3104;50.348;7.620;2022-12-26T17:02:51;1.47;;;1.00;;
6145;SDS011;3104;50.348;7.620;2022-12-26T17:05:26;1.37;;;1.20;;
6145;SDS011;3104;50.348;7.620;2022-12-26T17:07:55;3.53;;;0.90;;
6145;SDS011;3104;50.348;7.620;2022-12-26T17:10:25;4.23;;;1.27;;
6145;SDS011;3104;50.348;7.620;2022-12-26T17:12:54;3.33;;;1.10;;
6145;SDS011;3104;50.348;7.620;2022-12-26T17:15:23;3.23;;;1.10;;
6145;SDS011;3104;50.348;7.620;2022-12-26T17:17:54;2.97;;;1.40;;
6145;SDS011;3104;50.348;7.620;2022-12-26T17:22:54;2.70;;;1.30;;
6145;SDS011;3104;50.348;7.620;2022-12-26T17:30:33;4.60;;;1.90;;
6145;SDS011;3104;50.348;7.620;2022-12-26T17:33:10;7.53;;;1.27;;
6145;SDS011;3104;50.348;7.620;2022-12-26T17:35:38;2.07;;;1.40;;
6145;SDS011;3104;50.348;7.620;2022-12-26T17:38:26;2.93;;;1.50;;
6145;SDS011;3104;50.348;7.620;2022-12-26T17:40:52;2.10;;;1.20;;
6145;SDS011;3104;50.348;7.620;2022-12-26T17:45:57;1.60;;;1.50;;
6145;SDS011;3104;50.348;7.620;2022-12-26T17:48:23;2.70;;;1.60;;
6145;SDS011;3104;50.348;7.620;2022-12-26T17:50:52;2.00;;;1.57;;
6145;SDS011;3104;50.348;7.620;2022-12-26T17:53:25;1.67;;;1.40;;
6145;SDS011;3104;50.348;7.620;2022-12-26T17:55:56;2.37;;;2.00;;
6145;SDS011;3104;50.348;7.620;2022-12-26T17:58:27;1.60;;;1.50;;
6145;SDS011;3104;50.348;7.620;2022-12-26T18:00:53;5.97;;;2.73;;
6145;SDS011;3104;50.348;7.620;2022-12-26T18:03:19;3.63;;;2.17;;
6145;SDS011;3104;50.348;7.620;2022-12-26T18:05:45;6.20;;;2.13;;
6145;SDS011;3104;50.348;7.620;2022-12-26T18:08:25;2.10;;;1.90;;
6145;SDS011;3104;50.348;7.620;2022-12-26T18:11:02;3.50;;;1.50;;
6145;SDS011;3104;50.348;7.620;2022-12-26T18:13:30;3.43;;;2.13;;
6145;SDS011;3104;50.348;7.620;2022-12-26T18:15:56;2.57;;;1.90;;
6145;SDS011;3104;50.348;7.620;2022-12-26T18:18:29;3.00;;;1.50;;
6145;SDS011;3104;50.348;7.620;2022-12-26T18:20:56;2.50;;;1.77;;
6145;SDS011;3104;50.348;7.620;2022-12-26T18:23:21;6.60;;;3.10;;
6145;SDS011;3104;50.348;7.620;2022-12-26T18:25:47;2.80;;;2.43;;
6145;SDS011;3104;50.348;7.620;2022-12-26T18:28:14;2.80;;;2.10;;
6145;SDS011;3104;50.348;7.620;2022-12-26T18:30:42;3.00;;;2.07;;
6145;SDS011;3104;50.348;7.620;2022-12-26T18:33:08;4.60;;;2.23;;
6145;SDS011;3104;50.348;7.620;2022-12-26T18:35:38;3.57;;;2.10;;
6145;SDS011;3104;50.348;7.620;2022-12-26T18:38:05;2.23;;;1.93;;
6145;SDS011;3104;50.348;7.620;2022-12-26T18:40:36;2.40;;;2.20;;
6145;SDS011;3104;50.348;7.620;2022-12-26T18:43:04;7.00;;;2.53;;
6145;SDS011;3104;50.348;7.620;2022-12-26T18:45:31;2.90;;;2.60;;
6145;SDS011;3104;50.348;7.620;2022-12-26T18:47:57;2.97;;;2.10;;
6145;SDS011;3104;50.348;7.620;2022-12-26T18:50:24;3.40;;;2.07;;
6145;SDS011;3104;50.348;7.620;2022-12-26T18:52:50;5.80;;;2.17;;
6145;SDS011;3104;50.348;7.620;2022-12-26T18:55:15;3.70;;;2.20;;
6145;SDS011;3104;50.348;7.620;2022-12-26T18:57:41;7.70;;;2.60;;
6145;SDS011;3104;50.348;7.620;2022-12-26T19:00:07;2.00;;;1.57;;
6145;SDS011;3104;50.348;7.620;2022-12-26T19:02:36;3.10;;;2.80;;
6145;SDS011;3104;50.348;7.620;2022-12-26T19:05:02;3.60;;;2.87;;
6145;SDS011;3104;50.348;7.620;2022-12-26T19:07:27;2.10;;;1.80;;
6145;SDS011;3104;50.348;7.620;2022-12-26T19:09:53;4.33;;;2.17;;
6145;SDS011;3104;50.348;7.620;2022-12-26T19:12:19;4.90;;;2.20;;
6145;SDS011;3104;50.348;7.620;2022-12-26T19:14:46;4.30;;;2.00;;
6145;SDS011;3104;50.348;7.620;2022-12-26T19:17:12;5.53;;;2.20;;
6145;SDS011;3104;50.348;7.620;2022-12-26T19:19:38;21.50;;;14.00;;
6145;SDS011;3104;50.348;7.620;2022-12-26T19:22:03;8.73;;;6.73;;
6145;SDS011;3104;50.348;7.620;2022-12-26T19:24:29;3.53;;;3.30;;
6145;SDS011;3104;50.348;7.620;2022-12-26T19:26:55;2.37;;;2.00;;
6145;SDS011;3104;50.348;7.620;2022-12-26T19:29:20;5.97;;;4.40;;